createdAt,value
2019-03-25T00:15:47.614Z,38.10
2019-03-25T00:18:36.811Z,38.10
2019-03-25T00:21:47.778Z,36.37
2019-03-25T00:24:44.946Z,36.47
2019-03-25T00:27:51.308Z,33.00
2019-03-25T00:31:00.145Z,36.37
2019-03-25T00:33:46.952Z,36.90
2019-03-25T01:19:02.994Z,41.80
2019-03-25T03:52:13.101Z,39.97
2019-03-25T03:55:26.380Z,42.60
2019-03-25T08:26:13.078Z,14.47
2019-03-25T08:30:13.935Z,12.77
2019-03-25T08:33:47.526Z,13.77
2019-03-25T10:23:53.405Z,4.93
2019-03-25T10:26:44.861Z,6.23
2019-03-25T10:29:32.550Z,6.37
2019-03-25T10:35:59.387Z,6.10
2019-03-25T10:38:47.642Z,6.80
2019-03-25T10:52:40.088Z,4.73
2019-03-25T10:56:03.430Z,5.43
2019-03-25T11:43:25.170Z,5.37
2019-03-25T11:51:05.032Z,3.50
2019-03-25T11:54:45.731Z,3.63
2019-03-25T11:58:59.066Z,4.20
2019-03-25T12:25:16.189Z,3.60
2019-03-25T12:28:08.387Z,3.60
2019-03-25T12:31:13.950Z,5.87
2019-03-25T12:45:54.723Z,7.50
2019-03-25T13:00:56.818Z,6.17
2019-03-25T13:07:59.926Z,4.37
2019-03-25T13:11:42.827Z,3.77
2019-03-25T13:18:31.148Z,3.87
2019-03-25T13:21:54.196Z,5.30
2019-03-25T13:24:54.398Z,3.73
2019-03-25T13:35:30.351Z,4.33
2019-03-25T13:39:01.041Z,4.63
2019-03-25T13:42:48.771Z,3.77
2019-03-25T13:50:28.622Z,3.80
2019-03-25T13:53:12.952Z,4.10
2019-03-25T13:56:49.200Z,3.83
2019-03-25T14:07:57.932Z,1.77
2019-03-25T14:15:00.429Z,2.03
2019-03-25T14:17:58.047Z,1.70
2019-03-25T14:20:38.061Z,1.50
2019-03-25T14:23:26.483Z,2.13
2019-03-25T14:26:32.476Z,2.10
2019-03-25T14:29:24.008Z,2.60
2019-03-25T14:32:28.834Z,2.40
2019-03-25T14:35:16.096Z,2.17
2019-03-25T14:38:30.603Z,2.70
2019-03-25T14:41:28.710Z,2.83
2019-03-25T14:44:23.282Z,2.70
2019-03-25T14:47:14.931Z,2.80
2019-03-25T14:50:09.733Z,2.60
2019-03-25T14:52:50.908Z,3.13
2019-03-25T14:55:57.853Z,3.33
2019-03-25T14:58:41.868Z,2.70
2019-03-25T15:01:27.322Z,2.50
2019-03-25T15:04:05.674Z,2.60
2019-03-25T15:06:56.057Z,2.40
2019-03-25T15:09:33.057Z,2.20
2019-03-25T15:12:21.447Z,2.10
2019-03-25T15:15:03.984Z,2.40
2019-03-25T15:18:14.861Z,2.17
2019-03-25T15:21:02.919Z,2.63
2019-03-25T15:24:02.464Z,2.33
2019-03-25T15:26:55.754Z,2.37
2019-03-25T15:30:10.446Z,2.50
2019-03-25T15:33:05.582Z,2.67
2019-03-25T15:36:17.985Z,2.50
2019-03-25T15:39:20.483Z,2.73
2019-03-25T15:42:43.790Z,2.83
2019-03-25T15:46:11.984Z,2.23
2019-03-25T15:50:22.057Z,2.33
2019-03-25T15:54:06.279Z,2.67
2019-03-25T16:33:44.937Z,3.00
2019-03-25T16:37:30.764Z,4.13
2019-03-25T17:00:31.008Z,3.00
2019-03-25T17:12:14.411Z,2.97
2019-03-25T17:45:52.288Z,3.07
2019-03-25T17:53:28.318Z,4.33
2019-03-25T18:11:31.940Z,2.77
2019-03-25T18:14:27.765Z,3.47
2019-03-25T18:17:33.247Z,3.23
2019-03-25T18:20:19.165Z,3.57
2019-03-25T18:23:07.025Z,3.50
2019-03-25T18:26:18.840Z,2.70
2019-03-25T18:29:35.247Z,3.10
2019-03-25T18:32:33.811Z,3.03
2019-03-25T18:35:34.212Z,2.47
2019-03-25T18:38:59.454Z,3.20
2019-03-25T18:42:03.679Z,3.10
2019-03-25T18:45:25.209Z,2.63
2019-03-25T18:48:32.013Z,2.87
2019-03-25T18:51:20.511Z,2.60
2019-03-25T18:54:33.011Z,2.30
2019-03-25T18:58:26.420Z,2.57
2019-03-25T19:05:51.394Z,2.10
2019-03-25T19:09:07.207Z,2.00
2019-03-25T19:12:30.015Z,2.80
2019-03-25T19:15:33.983Z,1.80
2019-03-25T19:18:20.125Z,2.03
2019-03-25T19:26:29.444Z,2.23
2019-03-25T19:34:25.452Z,1.83
2019-03-25T19:45:49.837Z,1.47
2019-03-25T19:49:31.835Z,1.40
2019-03-25T19:53:25.410Z,1.13
2019-03-25T20:00:23.532Z,1.50
2019-03-25T20:03:28.038Z,1.50
2019-03-25T20:06:08.222Z,1.60
2019-03-25T20:08:51.562Z,1.33
2019-03-25T20:11:45.609Z,1.70
2019-03-25T20:14:24.812Z,1.30
2019-03-25T20:17:09.848Z,1.30
2019-03-25T20:19:58.962Z,1.40
2019-03-25T20:22:46.665Z,1.60
2019-03-25T20:25:34.637Z,1.33
2019-03-25T20:28:34.230Z,1.93
2019-03-25T20:31:16.089Z,1.50
2019-03-25T20:34:10.343Z,1.77
2019-03-25T20:36:45.376Z,2.00
2019-03-25T20:39:24.948Z,1.77
2019-03-25T20:42:07.293Z,1.67
2019-03-25T20:44:51.938Z,1.83
2019-03-25T20:47:35.885Z,1.67
2019-03-25T20:50:16.877Z,2.00
2019-03-25T20:52:54.331Z,2.20
2019-03-25T20:55:33.702Z,2.03
2019-03-25T20:58:31.025Z,1.80
2019-03-25T21:01:20.323Z,2.07
2019-03-25T21:04:11.506Z,1.83
2019-03-25T21:07:06.399Z,2.00
2019-03-25T21:09:48.560Z,2.03
2019-03-25T21:12:28.232Z,1.90
2019-03-25T21:15:05.197Z,2.17
2019-03-25T21:17:47.174Z,1.90
2019-03-25T21:20:29.577Z,2.20
2019-03-25T21:23:12.350Z,2.20
2019-03-25T21:25:50.934Z,2.40
2019-03-25T21:28:28.231Z,2.43
2019-03-25T21:31:15.748Z,2.53
2019-03-25T21:33:51.266Z,2.37
2019-03-25T21:36:26.968Z,2.60
2019-03-25T21:39:07.042Z,2.67
2019-03-25T21:41:48.008Z,2.80
2019-03-25T21:44:29.619Z,2.80
2019-03-25T21:47:09.250Z,3.47
2019-03-25T21:49:55.875Z,3.10
2019-03-25T21:52:38.869Z,3.33
2019-03-25T21:55:15.865Z,3.53
2019-03-25T21:57:54.733Z,3.50
2019-03-25T22:00:38.747Z,3.77
2019-03-25T22:03:17.606Z,3.10
2019-03-25T22:05:56.190Z,3.10
2019-03-25T22:08:37.955Z,3.57
2019-03-25T22:11:33.676Z,3.23
2019-03-25T22:14:13.224Z,3.70
2019-03-25T22:16:48.865Z,3.50
2019-03-25T22:19:27.040Z,3.67
2019-03-25T22:22:12.982Z,3.83
2019-03-25T22:24:50.713Z,3.73
2019-03-25T22:27:30.169Z,3.80
2019-03-25T22:30:12.190Z,3.90
2019-03-25T22:32:54.370Z,3.90
2019-03-25T22:35:31.072Z,4.03
2019-03-25T22:38:09.226Z,3.57
2019-03-25T22:40:46.150Z,4.00
2019-03-25T22:43:28.627Z,3.90
2019-03-25T22:46:07.331Z,3.73
2019-03-25T22:48:58.150Z,3.83
2019-03-25T22:51:34.759Z,4.40
2019-03-25T22:54:10.375Z,3.80
2019-03-25T22:56:47.605Z,3.90
2019-03-25T22:59:26.064Z,3.80
2019-03-25T23:02:10.817Z,3.70
2019-03-25T23:04:46.383Z,4.77
2019-03-25T23:07:23.876Z,4.30
2019-03-25T23:09:59.451Z,3.73
2019-03-25T23:12:35.130Z,3.77
2019-03-25T23:15:10.798Z,3.67
2019-03-25T23:17:51.407Z,3.70
2019-03-25T23:20:30.486Z,3.83
2019-03-25T23:23:06.135Z,3.90
2019-03-25T23:25:55.056Z,4.10
2019-03-25T23:28:30.600Z,4.10
2019-03-25T23:31:08.900Z,3.97
2019-03-25T23:34:00.451Z,3.80
2019-03-25T23:36:36.047Z,3.70
2019-03-25T23:39:12.811Z,3.37
2019-03-25T23:41:51.499Z,3.73
2019-03-25T23:44:38.359Z,3.67
2019-03-25T23:47:15.918Z,3.87
2019-03-25T23:49:51.358Z,3.63
2019-03-25T23:52:30.171Z,3.27
2019-03-25T23:55:06.417Z,3.20
2019-03-25T23:57:46.248Z,3.57
